sensor_id;sensor_type;location;lat;lon;timestamp;P1;durP1;ratioP1;P2;durP2;ratioP2
18520;SDS011;9390;51.244;6.982;2023-05-17T00:01:14;11.60;;;3.15;;
18520;SDS011;9390;51.244;6.982;2023-05-17T00:03:47;7.32;;;3.17;;
18520;SDS011;9390;51.244;6.982;2023-05-17T00:06:18;12.18;;;3.40;;
18520;SDS011;9390;51.244;6.982;2023-05-17T00:08:50;9.90;;;3.45;;
18520;SDS011;9390;51.244;6.982;2023-05-17T00:11:21;10.02;;;3.10;;
18520;SDS011;9390;51.244;6.982;2023-05-17T00:13:52;7.72;;;3.28;;
18520;SDS011;9390;51.244;6.982;2023-05-17T00:16:24;7.63;;;3.40;;
18520;SDS011;9390;51.244;6.982;2023-05-17T00:18:57;11.50;;;3.65;;
18520;SDS011;9390;51.244;6.982;2023-05-17T00:21:28;6.43;;;2.80;;
18520;SDS011;9390;51.244;6.982;2023-05-17T00:24:00;11.05;;;4.07;;
18520;SDS011;9390;51.244;6.982;2023-05-17T00:26:31;10.00;;;3.85;;
18520;SDS011;9390;51.244;6.982;2023-05-17T00:29:03;9.75;;;3.60;;
18520;SDS011;9390;51.244;6.982;2023-05-17T00:31:35;8.52;;;3.70;;
18520;SDS011;9390;51.244;6.982;2023-05-17T00:34:07;11.20;;;3.75;;
18520;SDS011;9390;51.244;6.982;2023-05-17T00:36:39;9.75;;;3.60;;
18520;SDS011;9390;51.244;6.982;2023-05-17T00:39:10;10.18;;;3.15;;
18520;SDS011;9390;51.244;6.982;2023-05-17T00:41:41;9.80;;;4.15;;
18520;SDS011;9390;51.244;6.982;2023-05-17T00:44:13;10.50;;;4.22;;
18520;SDS011;9390;51.244;6.982;2023-05-17T00:46:44;14.85;;;4.40;;
18520;SDS011;9390;51.244;6.982;2023-05-17T00:49:18;11.55;;;4.15;;
18520;SDS011;9390;51.244;6.982;2023-05-17T00:51:50;10.40;;;4.57;;
18520;SDS011;9390;51.244;6.982;2023-05-17T00:54:21;16.23;;;5.57;;
18520;SDS011;9390;51.244;6.982;2023-05-17T00:56:53;12.50;;;5.07;;
18520;SDS011;9390;51.244;6.982;2023-05-17T00:59:26;14.73;;;4.88;;
18520;SDS011;9390;51.244;6.982;2023-05-17T01:01:58;11.60;;;6.03;;
18520;SDS011;9390;51.244;6.982;2023-05-17T01:04:30;13.82;;;5.45;;
18520;SDS011;9390;51.244;6.982;2023-05-17T01:07:02;13.68;;;6.32;;
18520;SDS011;9390;51.244;6.982;2023-05-17T01:09:33;13.07;;;5.50;;
18520;SDS011;9390;51.244;6.982;2023-05-17T01:12:06;11.90;;;5.05;;
18520;SDS011;9390;51.244;6.982;2023-05-17T01:14:46;15.43;;;5.38;;
18520;SDS011;9390;51.244;6.982;2023-05-17T01:17:23;12.85;;;5.40;;
18520;SDS011;9390;51.244;6.982;2023-05-17T01:20:03;13.25;;;5.40;;
18520;SDS011;9390;51.244;6.982;2023-05-17T01:22:42;13.98;;;5.75;;
18520;SDS011;9390;51.244;6.982;2023-05-17T01:25:20;14.27;;;5.53;;
18520;SDS011;9390;51.244;6.982;2023-05-17T01:28:00;13.10;;;5.47;;
18520;SDS011;9390;51.244;6.982;2023-05-17T01:30:32;16.08;;;5.68;;
18520;SDS011;9390;51.244;6.982;2023-05-17T01:33:04;12.98;;;5.18;;
18520;SDS011;9390;51.244;6.982;2023-05-17T01:35:36;14.52;;;5.70;;
18520;SDS011;9390;51.244;6.982;2023-05-17T01:38:08;15.60;;;6.60;;
18520;SDS011;9390;51.244;6.982;2023-05-17T01:40:45;16.08;;;6.65;;
18520;SDS011;9390;51.244;6.982;2023-05-17T01:43:23;16.20;;;5.85;;
18520;SDS011;9390;51.244;6.982;2023-05-17T01:45:59;23.08;;;5.90;;
18520;SDS011;9390;51.244;6.982;2023-05-17T01:48:38;17.02;;;6.53;;
18520;SDS011;9390;51.244;6.982;2023-05-17T01:51:11;12.18;;;6.03;;
18520;SDS011;9390;51.244;6.982;2023-05-17T01:53:47;17.35;;;6.00;;
18520;SDS011;9390;51.244;6.982;2023-05-17T01:56:26;18.60;;;5.88;;
18520;SDS011;9390;51.244;6.982;2023-05-17T01:58:59;17.92;;;6.32;;
18520;SDS011;9390;51.244;6.982;2023-05-17T02:01:33;18.05;;;5.97;;
18520;SDS011;9390;51.244;6.982;2023-05-17T02:04:05;19.42;;;6.60;;
18520;SDS011;9390;51.244;6.982;2023-05-17T02:06:36;17.65;;;6.15;;
18520;SDS011;9390;51.244;6.982;2023-05-17T02:09:08;12.93;;;5.80;;
18520;SDS011;9390;51.244;6.982;2023-05-17T02:11:39;12.32;;;5.53;;
18520;SDS011;9390;51.244;6.982;2023-05-17T02:14:12;18.85;;;6.53;;
18520;SDS011;9390;51.244;6.982;2023-05-17T02:16:43;17.35;;;6.07;;
18520;SDS011;9390;51.244;6.982;2023-05-17T02:19:14;23.92;;;6.57;;
18520;SDS011;9390;51.244;6.982;2023-05-17T02:21:46;16.98;;;6.05;;
18520;SDS011;9390;51.244;6.982;2023-05-17T02:24:17;18.38;;;6.22;;
18520;SDS011;9390;51.244;6.982;2023-05-17T02:26:49;16.50;;;6.22;;
18520;SDS011;9390;51.244;6.982;2023-05-17T02:29:21;18.40;;;6.95;;
18520;SDS011;9390;51.244;6.982;2023-05-17T02:31:53;15.80;;;6.28;;
18520;SDS011;9390;51.244;6.982;2023-05-17T02:34:24;15.00;;;6.38;;
18520;SDS011;9390;51.244;6.982;2023-05-17T02:36:56;12.82;;;5.90;;
18520;SDS011;9390;51.244;6.982;2023-05-17T02:39:27;15.10;;;6.38;;
18520;SDS011;9390;51.244;6.982;2023-05-17T02:41:58;13.45;;;6.45;;
18520;SDS011;9390;51.244;6.982;2023-05-17T02:44:31;16.90;;;6.40;;
18520;SDS011;9390;51.244;6.982;2023-05-17T02:47:03;15.63;;;6.03;;
18520;SDS011;9390;51.244;6.982;2023-05-17T02:49:34;12.88;;;6.07;;
18520;SDS011;9390;51.244;6.982;2023-05-17T02:52:06;13.63;;;5.60;;
18520;SDS011;9390;51.244;6.982;2023-05-17T02:54:37;20.20;;;6.20;;
18520;SDS011;9390;51.244;6.982;2023-05-17T02:57:08;18.35;;;6.50;;
18520;SDS011;9390;51.244;6.982;2023-05-17T02:59:41;15.93;;;7.22;;
18520;SDS011;9390;51.244;6.982;2023-05-17T03:02:13;15.25;;;6.63;;
18520;SDS011;9390;51.244;6.982;2023-05-17T03:04:44;14.70;;;6.63;;
18520;SDS011;9390;51.244;6.982;2023-05-17T03:07:16;16.92;;;7.28;;
18520;SDS011;9390;51.244;6.982;2023-05-17T03:09:47;14.00;;;6.68;;
18520;SDS011;9390;51.244;6.982;2023-05-17T03:12:18;22.92;;;6.57;;
18520;SDS011;9390;51.244;6.982;2023-05-17T03:14:51;17.52;;;6.90;;
18520;SDS011;9390;51.244;6.982;2023-05-17T03:17:23;16.50;;;7.30;;
18520;SDS011;9390;51.244;6.982;2023-05-17T03:19:54;28.08;;;8.25;;
18520;SDS011;9390;51.244;6.982;2023-05-17T03:22:26;17.05;;;7.35;;
18520;SDS011;9390;51.244;6.982;2023-05-17T03:24:57;15.73;;;6.60;;
18520;SDS011;9390;51.244;6.982;2023-05-17T03:27:29;20.15;;;7.43;;
18520;SDS011;9390;51.244;6.982;2023-05-17T03:30:01;16.02;;;6.55;;
18520;SDS011;9390;51.244;6.982;2023-05-17T03:32:33;17.80;;;7.20;;
18520;SDS011;9390;51.244;6.982;2023-05-17T03:35:05;23.15;;;8.35;;
18520;SDS011;9390;51.244;6.982;2023-05-17T03:37:37;18.17;;;7.57;;
18520;SDS011;9390;51.244;6.982;2023-05-17T03:40:08;20.17;;;7.72;;
18520;SDS011;9390;51.244;6.982;2023-05-17T03:42:41;23.27;;;8.13;;
18520;SDS011;9390;51.244;6.982;2023-05-17T03:45:13;21.60;;;8.23;;
18520;SDS011;9390;51.244;6.982;2023-05-17T03:47:45;23.20;;;7.60;;
18520;SDS011;9390;51.244;6.982;2023-05-17T03:50:16;20.35;;;7.72;;
18520;SDS011;9390;51.244;6.982;2023-05-17T03:52:48;16.73;;;7.68;;
18520;SDS011;9390;51.244;6.982;2023-05-17T03:55:19;21.25;;;8.07;;
18520;SDS011;9390;51.244;6.982;2023-05-17T03:57:51;19.10;;;7.88;;
18520;SDS011;9390;51.244;6.982;2023-05-17T04:00:24;22.60;;;7.95;;
18520;SDS011;9390;51.244;6.982;2023-05-17T04:02:55;15.80;;;7.60;;
18520;SDS011;9390;51.244;6.982;2023-05-17T04:05:26;21.48;;;8.18;;
18520;SDS011;9390;51.244;6.982;2023-05-17T04:07:58;24.77;;;9.25;;
18520;SDS011;9390;51.244;6.982;2023-05-17T04:10:30;33.80;;;9.30;;
18520;SDS011;9390;51.244;6.982;2023-05-17T04:13:01;25.92;;;9.18;;
18520;SDS011;9390;51.244;6.982;2023-05-17T04:15:34;25.55;;;8.95;;
18520;SDS011;9390;51.244;6.982;2023-05-17T04:18:06;29.42;;;9.00;;
18520;SDS011;9390;51.244;6.982;2023-05-17T04:20:37;22.80;;;9.13;;
18520;SDS011;9390;51.244;6.982;2023-05-17T04:23:09;19.90;;;9.13;;
18520;SDS011;9390;51.244;6.982;2023-05-17T04:25:40;27.17;;;9.27;;
18520;SDS011;9390;51.244;6.982;2023-05-17T04:28:12;25.77;;;9.77;;
18520;SDS011;9390;51.244;6.982;2023-05-17T04:30:45;21.83;;;9.07;;
18520;SDS011;9390;51.244;6.982;2023-05-17T04:35:48;27.67;;;9.45;;
18520;SDS011;9390;51.244;6.982;2023-05-17T04:38:20;21.27;;;9.32;;
18520;SDS011;9390;51.244;6.982;2023-05-17T04:40:52;21.90;;;8.97;;
18520;SDS011;9390;51.244;6.982;2023-05-17T04:43:24;35.65;;;9.57;;
18520;SDS011;9390;51.244;6.982;2023-05-17T04:45:56;26.10;;;9.52;;
18520;SDS011;9390;51.244;6.982;2023-05-17T04:48:29;26.38;;;8.23;;
18520;SDS011;9390;51.244;6.982;2023-05-17T04:51:01;26.30;;;9.43;;
18520;SDS011;9390;51.244;6.982;2023-05-17T04:53:34;19.47;;;8.33;;
18520;SDS011;9390;51.244;6.982;2023-05-17T04:56:05;24.48;;;9.88;;
18520;SDS011;9390;51.244;6.982;2023-05-17T04:58:37;23.67;;;10.15;;
18520;SDS011;9390;51.244;6.982;2023-05-17T05:01:10;32.75;;;11.88;;
18520;SDS011;9390;51.244;6.982;2023-05-17T05:03:41;23.83;;;10.63;;
18520;SDS011;9390;51.244;6.982;2023-05-17T05:06:13;30.70;;;10.75;;
18520;SDS011;9390;51.244;6.982;2023-05-17T05:08:45;30.33;;;10.67;;
18520;SDS011;9390;51.244;6.982;2023-05-17T05:11:16;33.72;;;12.02;;
18520;SDS011;9390;51.244;6.982;2023-05-17T05:13:48;39.65;;;12.45;;
18520;SDS011;9390;51.244;6.982;2023-05-17T05:16:20;36.78;;;12.57;;
18520;SDS011;9390;51.244;6.982;2023-05-17T05:18:52;36.08;;;14.32;;
18520;SDS011;9390;51.244;6.982;2023-05-17T05:21:23;35.33;;;13.68;;
18520;SDS011;9390;51.244;6.982;2023-05-17T05:23:55;46.25;;;16.50;;
18520;SDS011;9390;51.244;6.982;2023-05-17T05:26:26;38.03;;;15.00;;
18520;SDS011;9390;51.244;6.982;2023-05-17T05:28:57;34.10;;;14.38;;
18520;SDS011;9390;51.244;6.982;2023-05-17T05:31:30;39.60;;;15.45;;
18520;SDS011;9390;51.244;6.982;2023-05-17T05:34:01;43.58;;;15.18;;
18520;SDS011;9390;51.244;6.982;2023-05-17T05:36:33;36.67;;;16.23;;
18520;SDS011;9390;51.244;6.982;2023-05-17T05:39:04;40.00;;;17.25;;
18520;SDS011;9390;51.244;6.982;2023-05-17T05:41:36;37.58;;;16.95;;
18520;SDS011;9390;51.244;6.982;2023-05-17T05:44:07;45.42;;;16.60;;
18520;SDS011;9390;51.244;6.982;2023-05-17T05:46:40;37.25;;;16.48;;
18520;SDS011;9390;51.244;6.982;2023-05-17T05:49:11;34.83;;;15.40;;
18520;SDS011;9390;51.244;6.982;2023-05-17T05:51:42;39.67;;;14.38;;
18520;SDS011;9390;51.244;6.982;2023-05-17T05:54:14;34.28;;;13.52;;
18520;SDS011;9390;51.244;6.982;2023-05-17T05:56:46;42.08;;;14.95;;
18520;SDS011;9390;51.244;6.982;2023-05-17T05:59:17;33.45;;;13.90;;
18520;SDS011;9390;51.244;6.982;2023-05-17T06:01:50;33.80;;;13.07;;
18520;SDS011;9390;51.244;6.982;2023-05-17T06:04:21;31.15;;;12.70;;
18520;SDS011;9390;51.244;6.982;2023-05-17T06:06:53;30.58;;;13.32;;
18520;SDS011;9390;51.244;6.982;2023-05-17T06:09:25;32.75;;;12.23;;
18520;SDS011;9390;51.244;6.982;2023-05-17T06:11:56;25.50;;;10.35;;
18520;SDS011;9390;51.244;6.982;2023-05-17T06:14:28;27.17;;;9.98;;
18520;SDS011;9390;51.244;6.982;2023-05-17T06:17:00;21.10;;;8.15;;
18520;SDS011;9390;51.244;6.982;2023-05-17T06:19:32;26.75;;;7.95;;
18520;SDS011;9390;51.244;6.982;2023-05-17T06:22:03;16.52;;;7.28;;
18520;SDS011;9390;51.244;6.982;2023-05-17T06:24:35;21.63;;;7.40;;
18520;SDS011;9390;51.244;6.982;2023-05-17T06:27:06;22.08;;;6.35;;
18520;SDS011;9390;51.244;6.982;2023-05-17T06:29:37;17.92;;;5.50;;
18520;SDS011;9390;51.244;6.982;2023-05-17T06:32:10;16.63;;;4.85;;
18520;SDS011;9390;51.244;6.982;2023-05-17T06:34:41;21.63;;;5.15;;
18520;SDS011;9390;51.244;6.982;2023-05-17T06:37:13;17.77;;;5.65;;
18520;SDS011;9390;51.244;6.982;2023-05-17T06:39:44;18.90;;;4.28;;
18520;SDS011;9390;51.244;6.982;2023-05-17T06:42:15;16.48;;;4.38;;
18520;SDS011;9390;51.244;6.982;2023-05-17T06:44:47;13.27;;;3.47;;
18520;SDS011;9390;51.244;6.982;2023-05-17T06:47:19;11.90;;;3.08;;
18520;SDS011;9390;51.244;6.982;2023-05-17T06:49:51;10.93;;;3.00;;
18520;SDS011;9390;51.244;6.982;2023-05-17T06:52:22;9.07;;;2.50;;
18520;SDS011;9390;51.244;6.982;2023-05-17T06:54:54;12.93;;;3.47;;
18520;SDS011;9390;51.244;6.982;2023-05-17T06:57:25;14.32;;;2.60;;
18520;SDS011;9390;51.244;6.982;2023-05-17T06:59:57;12.73;;;2.95;;
18520;SDS011;9390;51.244;6.982;2023-05-17T07:02:30;10.68;;;2.60;;
18520;SDS011;9390;51.244;6.982;2023-05-17T07:07:33;14.18;;;2.83;;
18520;SDS011;9390;51.244;6.982;2023-05-17T07:10:05;12.32;;;2.90;;
18520;SDS011;9390;51.244;6.982;2023-05-17T07:12:37;14.25;;;2.58;;
18520;SDS011;9390;51.244;6.982;2023-05-17T07:15:08;9.13;;;2.25;;
18520;SDS011;9390;51.244;6.982;2023-05-17T07:17:42;12.57;;;2.45;;
18520;SDS011;9390;51.244;6.982;2023-05-17T07:20:13;6.20;;;2.28;;
18520;SDS011;9390;51.244;6.982;2023-05-17T07:22:45;12.25;;;2.85;;
18520;SDS011;9390;51.244;6.982;2023-05-17T07:25:17;15.52;;;4.15;;
18520;SDS011;9390;51.244;6.982;2023-05-17T07:27:51;13.65;;;2.75;;
18520;SDS011;9390;51.244;6.982;2023-05-17T07:30:23;17.08;;;2.92;;
18520;SDS011;9390;51.244;6.982;2023-05-17T07:32:56;17.88;;;4.03;;
18520;SDS011;9390;51.244;6.982;2023-05-17T07:35:27;11.43;;;3.13;;
18520;SDS011;9390;51.244;6.982;2023-05-17T07:37:58;16.23;;;2.80;;
18520;SDS011;9390;51.244;6.982;2023-05-17T07:40:30;12.80;;;2.97;;
18520;SDS011;9390;51.244;6.982;2023-05-17T07:43:01;11.20;;;2.50;;
18520;SDS011;9390;51.244;6.982;2023-05-17T07:45:33;12.80;;;2.60;;
18520;SDS011;9390;51.244;6.982;2023-05-17T07:48:05;15.48;;;4.03;;
18520;SDS011;9390;51.244;6.982;2023-05-17T07:50:37;11.65;;;2.28;;
18520;SDS011;9390;51.244;6.982;2023-05-17T07:53:08;11.90;;;2.28;;
18520;SDS011;9390;51.244;6.982;2023-05-17T07:55:40;14.18;;;2.45;;
18520;SDS011;9390;51.244;6.982;2023-05-17T07:58:11;9.63;;;2.28;;
18520;SDS011;9390;51.244;6.982;2023-05-17T08:00:42;12.30;;;2.13;;
18520;SDS011;9390;51.244;6.982;2023-05-17T08:03:15;12.40;;;2.28;;
18520;SDS011;9390;51.244;6.982;2023-05-17T08:05:47;11.45;;;2.00;;
18520;SDS011;9390;51.244;6.982;2023-05-17T08:08:18;13.82;;;2.53;;
18520;SDS011;9390;51.244;6.982;2023-05-17T08:10:50;12.60;;;2.50;;
18520;SDS011;9390;51.244;6.982;2023-05-17T08:13:22;12.73;;;3.03;;
18520;SDS011;9390;51.244;6.982;2023-05-17T08:15:53;9.75;;;2.25;;
18520;SDS011;9390;51.244;6.982;2023-05-17T08:20:59;14.45;;;2.08;;
18520;SDS011;9390;51.244;6.982;2023-05-17T08:23:31;12.13;;;2.53;;
18520;SDS011;9390;51.244;6.982;2023-05-17T08:26:02;13.82;;;2.22;;
18520;SDS011;9390;51.244;6.982;2023-05-17T08:28:34;11.23;;;2.53;;
18520;SDS011;9390;51.244;6.982;2023-05-17T08:31:05;7.63;;;1.88;;
18520;SDS011;9390;51.244;6.982;2023-05-17T08:33:38;11.30;;;2.15;;
18520;SDS011;9390;51.244;6.982;2023-05-17T08:36:10;10.73;;;2.20;;
18520;SDS011;9390;51.244;6.982;2023-05-17T08:38:41;8.68;;;1.80;;
18520;SDS011;9390;51.244;6.982;2023-05-17T08:41:13;10.05;;;1.83;;
18520;SDS011;9390;51.244;6.982;2023-05-17T08:43:45;15.25;;;2.25;;
18520;SDS011;9390;51.244;6.982;2023-05-17T08:46:17;11.63;;;1.98;;
18520;SDS011;9390;51.244;6.982;2023-05-17T08:48:52;8.57;;;2.28;;
18520;SDS011;9390;51.244;6.982;2023-05-17T08:51:29;15.32;;;2.80;;
18520;SDS011;9390;51.244;6.982;2023-05-17T08:54:01;6.72;;;1.70;;
18520;SDS011;9390;51.244;6.982;2023-05-17T08:56:37;8.60;;;2.35;;
18520;SDS011;9390;51.244;6.982;2023-05-17T08:59:09;11.73;;;2.60;;
18520;SDS011;9390;51.244;6.982;2023-05-17T09:01:41;11.10;;;1.97;;
18520;SDS011;9390;51.244;6.982;2023-05-17T09:04:15;11.00;;;1.60;;
18520;SDS011;9390;51.244;6.982;2023-05-17T09:06:46;10.93;;;2.28;;
18520;SDS011;9390;51.244;6.982;2023-05-17T09:09:19;14.38;;;2.40;;
18520;SDS011;9390;51.244;6.982;2023-05-17T09:11:51;12.32;;;2.15;;
18520;SDS011;9390;51.244;6.982;2023-05-17T09:14:23;9.65;;;2.30;;
18520;SDS011;9390;51.244;6.982;2023-05-17T09:16:55;8.77;;;1.92;;
18520;SDS011;9390;51.244;6.982;2023-05-17T09:19:29;10.75;;;1.92;;
18520;SDS011;9390;51.244;6.982;2023-05-17T09:24:32;10.07;;;1.88;;
18520;SDS011;9390;51.244;6.982;2023-05-17T09:27:04;11.35;;;2.15;;
18520;SDS011;9390;51.244;6.982;2023-05-17T09:29:36;14.05;;;2.42;;
18520;SDS011;9390;51.244;6.982;2023-05-17T09:34:45;12.77;;;1.88;;
18520;SDS011;9390;51.244;6.982;2023-05-17T09:37:18;15.45;;;2.05;;
18520;SDS011;9390;51.244;6.982;2023-05-17T09:39:51;11.32;;;2.15;;
18520;SDS011;9390;51.244;6.982;2023-05-17T09:42:25;17.58;;;2.20;;
18520;SDS011;9390;51.244;6.982;2023-05-17T09:44:57;8.32;;;1.80;;
18520;SDS011;9390;51.244;6.982;2023-05-17T09:47:30;10.52;;;2.08;;
18520;SDS011;9390;51.244;6.982;2023-05-17T09:50:04;9.52;;;1.90;;
18520;SDS011;9390;51.244;6.982;2023-05-17T09:52:37;7.50;;;1.83;;
18520;SDS011;9390;51.244;6.982;2023-05-17T09:55:09;11.60;;;2.30;;
18520;SDS011;9390;51.244;6.982;2023-05-17T09:57:41;15.02;;;2.30;;
18520;SDS011;9390;51.244;6.982;2023-05-17T10:00:13;7.72;;;1.63;;
18520;SDS011;9390;51.244;6.982;2023-05-17T10:02:48;7.93;;;1.85;;
18520;SDS011;9390;51.244;6.982;2023-05-17T10:05:21;14.25;;;2.05;;
18520;SDS011;9390;51.244;6.982;2023-05-17T10:07:53;8.38;;;1.77;;
18520;SDS011;9390;51.244;6.982;2023-05-17T10:10:26;8.23;;;2.00;;
18520;SDS011;9390;51.244;6.982;2023-05-17T10:12:58;9.50;;;2.28;;
18520;SDS011;9390;51.244;6.982;2023-05-17T10:15:31;10.50;;;2.50;;
18520;SDS011;9390;51.244;6.982;2023-05-17T10:18:03;16.73;;;2.38;;
18520;SDS011;9390;51.244;6.982;2023-05-17T10:20:38;5.72;;;1.90;;
18520;SDS011;9390;51.244;6.982;2023-05-17T10:23:10;5.55;;;1.67;;
18520;SDS011;9390;51.244;6.982;2023-05-17T10:25:42;8.05;;;1.73;;
18520;SDS011;9390;51.244;6.982;2023-05-17T10:28:14;6.55;;;1.70;;
18520;SDS011;9390;51.244;6.982;2023-05-17T10:30:47;8.73;;;1.80;;
18520;SDS011;9390;51.244;6.982;2023-05-17T10:33:19;10.00;;;2.03;;
18520;SDS011;9390;51.244;6.982;2023-05-17T10:35:53;8.67;;;1.70;;
18520;SDS011;9390;51.244;6.982;2023-05-17T10:38:26;5.43;;;1.80;;
18520;SDS011;9390;51.244;6.982;2023-05-17T10:40:57;9.55;;;1.95;;
18520;SDS011;9390;51.244;6.982;2023-05-17T10:43:29;11.98;;;2.35;;
18520;SDS011;9390;51.244;6.982;2023-05-17T10:46:01;11.00;;;1.80;;
18520;SDS011;9390;51.244;6.982;2023-05-17T10:48:33;7.30;;;1.90;;
18520;SDS011;9390;51.244;6.982;2023-05-17T10:51:06;10.35;;;2.22;;
18520;SDS011;9390;51.244;6.982;2023-05-17T10:56:34;6.03;;;1.95;;
18520;SDS011;9390;51.244;6.982;2023-05-17T10:59:13;9.75;;;2.17;;
18520;SDS011;9390;51.244;6.982;2023-05-17T11:04:39;7.05;;;1.90;;
18520;SDS011;9390;51.244;6.982;2023-05-17T11:07:20;14.70;;;1.88;;
18520;SDS011;9390;51.244;6.982;2023-05-17T11:09:54;14.32;;;2.10;;
18520;SDS011;9390;51.244;6.982;2023-05-17T11:12:35;9.88;;;1.95;;
18520;SDS011;9390;51.244;6.982;2023-05-17T11:15:07;12.52;;;2.72;;
18520;SDS011;9390;51.244;6.982;2023-05-17T11:17:47;8.20;;;2.08;;
18520;SDS011;9390;51.244;6.982;2023-05-17T11:20:29;10.02;;;1.58;;
18520;SDS011;9390;51.244;6.982;2023-05-17T11:23:03;10.15;;;1.80;;
18520;SDS011;9390;51.244;6.982;2023-05-17T11:25:36;9.73;;;2.33;;
18520;SDS011;9390;51.244;6.982;2023-05-17T11:28:09;8.40;;;1.60;;
18520;SDS011;9390;51.244;6.982;2023-05-17T11:30:47;7.60;;;2.17;;
18520;SDS011;9390;51.244;6.982;2023-05-17T11:33:35;7.97;;;1.70;;
18520;SDS011;9390;51.244;6.982;2023-05-17T11:36:13;5.05;;;1.52;;
18520;SDS011;9390;51.244;6.982;2023-05-17T11:39:07;8.25;;;1.65;;
18520;SDS011;9390;51.244;6.982;2023-05-17T11:41:46;7.03;;;1.50;;
18520;SDS011;9390;51.244;6.982;2023-05-17T11:44:21;6.25;;;1.90;;
18520;SDS011;9390;51.244;6.982;2023-05-17T11:47:01;11.93;;;2.40;;
18520;SDS011;9390;51.244;6.982;2023-05-17T11:49:35;9.18;;;2.45;;
18520;SDS011;9390;51.244;6.982;2023-05-17T11:52:07;6.38;;;1.70;;
18520;SDS011;9390;51.244;6.982;2023-05-17T11:54:40;8.90;;;1.88;;
18520;SDS011;9390;51.244;6.982;2023-05-17T11:57:12;9.48;;;1.70;;
18520;SDS011;9390;51.244;6.982;2023-05-17T12:02:26;6.53;;;1.52;;
18520;SDS011;9390;51.244;6.982;2023-05-17T12:04:58;3.15;;;1.30;;
18520;SDS011;9390;51.244;6.982;2023-05-17T12:07:29;7.15;;;1.60;;
18520;SDS011;9390;51.244;6.982;2023-05-17T12:10:02;9.45;;;1.70;;
18520;SDS011;9390;51.244;6.982;2023-05-17T12:12:35;9.48;;;1.92;;
18520;SDS011;9390;51.244;6.982;2023-05-17T12:15:07;11.00;;;2.45;;
18520;SDS011;9390;51.244;6.982;2023-05-17T12:17:40;10.45;;;2.40;;
18520;SDS011;9390;51.244;6.982;2023-05-17T12:20:14;10.68;;;1.80;;
18520;SDS011;9390;51.244;6.982;2023-05-17T12:22:53;8.88;;;1.85;;
18520;SDS011;9390;51.244;6.982;2023-05-17T12:25:26;4.55;;;1.58;;
18520;SDS011;9390;51.244;6.982;2023-05-17T12:28:14;9.13;;;1.85;;
18520;SDS011;9390;51.244;6.982;2023-05-17T12:30:50;7.82;;;1.77;;
18520;SDS011;9390;51.244;6.982;2023-05-17T12:33:22;7.25;;;1.60;;
18520;SDS011;9390;51.244;6.982;2023-05-17T12:35:54;6.57;;;1.80;;
18520;SDS011;9390;51.244;6.982;2023-05-17T12:38:26;6.45;;;1.50;;
18520;SDS011;9390;51.244;6.982;2023-05-17T12:41:03;8.20;;;1.95;;
18520;SDS011;9390;51.244;6.982;2023-05-17T12:43:35;8.55;;;2.03;;
18520;SDS011;9390;51.244;6.982;2023-05-17T12:46:08;8.60;;;1.85;;
18520;SDS011;9390;51.244;6.982;2023-05-17T12:48:41;10.70;;;2.17;;
18520;SDS011;9390;51.244;6.982;2023-05-17T12:51:13;6.72;;;1.65;;
18520;SDS011;9390;51.244;6.982;2023-05-17T12:53:47;15.90;;;1.98;;
18520;SDS011;9390;51.244;6.982;2023-05-17T12:56:22;4.32;;;1.50;;
18520;SDS011;9390;51.244;6.982;2023-05-17T12:59:05;10.60;;;2.00;;
18520;SDS011;9390;51.244;6.982;2023-05-17T13:01:37;6.70;;;2.00;;
18520;SDS011;9390;51.244;6.982;2023-05-17T13:04:10;6.70;;;1.70;;
18520;SDS011;9390;51.244;6.982;2023-05-17T13:06:43;8.30;;;1.88;;
18520;SDS011;9390;51.244;6.982;2023-05-17T13:09:15;11.95;;;1.83;;
18520;SDS011;9390;51.244;6.982;2023-05-17T13:11:52;5.93;;;1.55;;
18520;SDS011;9390;51.244;6.982;2023-05-17T13:14:37;11.68;;;1.70;;
18520;SDS011;9390;51.244;6.982;2023-05-17T13:17:10;6.00;;;1.70;;
18520;SDS011;9390;51.244;6.982;2023-05-17T13:19:43;8.30;;;1.77;;
18520;SDS011;9390;51.244;6.982;2023-05-17T13:22:14;8.52;;;1.73;;
18520;SDS011;9390;51.244;6.982;2023-05-17T13:24:46;7.78;;;1.92;;
18520;SDS011;9390;51.244;6.982;2023-05-17T13:27:18;7.97;;;1.70;;
18520;SDS011;9390;51.244;6.982;2023-05-17T13:29:50;6.03;;;1.65;;
18520;SDS011;9390;51.244;6.982;2023-05-17T13:32:21;7.32;;;1.80;;
18520;SDS011;9390;51.244;6.982;2023-05-17T13:34:53;5.15;;;1.77;;
18520;SDS011;9390;51.244;6.982;2023-05-17T13:37:24;7.40;;;1.90;;
18520;SDS011;9390;51.244;6.982;2023-05-17T13:39:56;10.50;;;1.98;;
18520;SDS011;9390;51.244;6.982;2023-05-17T13:42:28;4.53;;;1.60;;
18520;SDS011;9390;51.244;6.982;2023-05-17T13:45:01;6.88;;;1.70;;
18520;SDS011;9390;51.244;6.982;2023-05-17T13:47:33;7.70;;;2.13;;
18520;SDS011;9390;51.244;6.982;2023-05-17T13:50:04;8.68;;;2.30;;
18520;SDS011;9390;51.244;6.982;2023-05-17T13:52:36;5.70;;;2.03;;
18520;SDS011;9390;51.244;6.982;2023-05-17T13:55:08;8.18;;;2.30;;
18520;SDS011;9390;51.244;6.982;2023-05-17T13:57:41;8.00;;;2.22;;
18520;SDS011;9390;51.244;6.982;2023-05-17T14:00:14;6.03;;;2.00;;
18520;SDS011;9390;51.244;6.982;2023-05-17T14:02:46;8.98;;;2.50;;
18520;SDS011;9390;51.244;6.982;2023-05-17T14:05:18;9.13;;;2.13;;
18520;SDS011;9390;51.244;6.982;2023-05-17T14:07:49;7.03;;;1.58;;
18520;SDS011;9390;51.244;6.982;2023-05-17T14:10:21;7.38;;;2.30;;
18520;SDS011;9390;51.244;6.982;2023-05-17T14:12:53;11.18;;;2.47;;
18520;SDS011;9390;51.244;6.982;2023-05-17T14:15:25;9.90;;;2.17;;
18520;SDS011;9390;51.244;6.982;2023-05-17T14:17:57;8.13;;;2.50;;
18520;SDS011;9390;51.244;6.982;2023-05-17T14:20:29;10.32;;;2.42;;
18520;SDS011;9390;51.244;6.982;2023-05-17T14:23:00;7.53;;;2.40;;
18520;SDS011;9390;51.244;6.982;2023-05-17T14:25:32;9.23;;;2.10;;
18520;SDS011;9390;51.244;6.982;2023-05-17T14:28:04;6.95;;;2.33;;
18520;SDS011;9390;51.244;6.982;2023-05-17T14:30:36;9.50;;;2.17;;
18520;SDS011;9390;51.244;6.982;2023-05-17T14:33:07;7.20;;;2.00;;
18520;SDS011;9390;51.244;6.982;2023-05-17T14:35:38;7.82;;;2.22;;
18520;SDS011;9390;51.244;6.982;2023-05-17T14:38:10;6.80;;;1.92;;
18520;SDS011;9390;51.244;6.982;2023-05-17T14:40:41;13.68;;;2.20;;
18520;SDS011;9390;51.244;6.982;2023-05-17T14:43:14;7.55;;;2.20;;
18520;SDS011;9390;51.244;6.982;2023-05-17T14:45:46;8.85;;;2.38;;
18520;SDS011;9390;51.244;6.982;2023-05-17T14:48:17;7.97;;;2.05;;
18520;SDS011;9390;51.244;6.982;2023-05-17T14:50:49;7.88;;;2.22;;
18520;SDS011;9390;51.244;6.982;2023-05-17T14:53:20;9.35;;;2.13;;
18520;SDS011;9390;51.244;6.982;2023-05-17T14:55:52;10.20;;;2.47;;
18520;SDS011;9390;51.244;6.982;2023-05-17T14:58:25;7.30;;;2.08;;
18520;SDS011;9390;51.244;6.982;2023-05-17T15:00:56;12.30;;;2.30;;
18520;SDS011;9390;51.244;6.982;2023-05-17T15:03:28;7.55;;;2.50;;
18520;SDS011;9390;51.244;6.982;2023-05-17T15:06:00;9.40;;;2.08;;
18520;SDS011;9390;51.244;6.982;2023-05-17T15:08:31;8.35;;;2.15;;
18520;SDS011;9390;51.244;6.982;2023-05-17T15:11:03;9.52;;;2.25;;
18520;SDS011;9390;51.244;6.982;2023-05-17T15:13:36;6.47;;;2.03;;
18520;SDS011;9390;51.244;6.982;2023-05-17T15:16:07;7.43;;;2.40;;
18520;SDS011;9390;51.244;6.982;2023-05-17T15:18:39;9.25;;;2.33;;
18520;SDS011;9390;51.244;6.982;2023-05-17T15:21:10;10.73;;;2.35;;
18520;SDS011;9390;51.244;6.982;2023-05-17T15:23:42;11.00;;;2.25;;
18520;SDS011;9390;51.244;6.982;2023-05-17T15:26:13;10.00;;;2.55;;
18520;SDS011;9390;51.244;6.982;2023-05-17T15:28:46;8.63;;;2.30;;
18520;SDS011;9390;51.244;6.982;2023-05-17T15:31:18;6.47;;;1.95;;
18520;SDS011;9390;51.244;6.982;2023-05-17T15:33:50;7.45;;;1.88;;
18520;SDS011;9390;51.244;6.982;2023-05-17T15:36:21;4.82;;;1.80;;
18520;SDS011;9390;51.244;6.982;2023-05-17T15:38:53;12.45;;;2.00;;
18520;SDS011;9390;51.244;6.982;2023-05-17T15:41:24;8.25;;;1.90;;
18520;SDS011;9390;51.244;6.982;2023-05-17T15:43:58;8.23;;;2.28;;